sensor_id;sensor_type;location;lat;lon;timestamp;pressure;altitude;pressure_sealevel;temperature;humidity
39789;BME280;25478;42.626;23.320;2023-02-14T00:01:43;94406.38;;;0.88;73.54
39789;BME280;25478;42.626;23.320;2023-02-14T00:04:08;94414.91;;;0.88;74.20
39789;BME280;25478;42.626;23.320;2023-02-14T00:06:34;94410.66;;;0.78;74.59
39789;BME280;25478;42.626;23.320;2023-02-14T00:09:09;94422.50;;;0.84;74.55
39789;BME280;25478;42.626;23.320;2023-02-14T00:11:35;94410.06;;;0.81;75.34
39789;BME280;25478;42.626;23.320;2023-02-14T00:14:01;94399.72;;;0.81;75.30
39789;BME280;25478;42.626;23.320;2023-02-14T00:16:45;94400.47;;;0.63;75.57
39789;BME280;25478;42.626;23.320;2023-02-14T00:19:12;94392.22;;;0.61;75.72
39789;BME280;25478;42.626;23.320;2023-02-14T00:21:38;94415.41;;;0.71;76.19
39789;BME280;25478;42.626;23.320;2023-02-14T00:24:10;94408.97;;;0.69;76.42
39789;BME280;25478;42.626;23.320;2023-02-14T00:26:36;94410.34;;;0.61;76.88
39789;BME280;25478;42.626;23.320;2023-02-14T00:29:04;94407.00;;;0.61;77.01
39789;BME280;25478;42.626;23.320;2023-02-14T00:31:30;94407.03;;;0.55;76.58
39789;BME280;25478;42.626;23.320;2023-02-14T00:33:55;94415.09;;;0.54;77.30
39789;BME280;25478;42.626;23.320;2023-02-14T00:36:21;94404.69;;;0.59;76.93
39789;BME280;25478;42.626;23.320;2023-02-14T00:38:48;94411.66;;;0.59;77.09
39789;BME280;25478;42.626;23.320;2023-02-14T00:41:14;94404.94;;;0.57;77.28
39789;BME280;25478;42.626;23.320;2023-02-14T00:43:47;94410.19;;;0.52;77.31
39789;BME280;25478;42.626;23.320;2023-02-14T00:46:14;94404.16;;;0.57;77.90
39789;BME280;25478;42.626;23.320;2023-02-14T00:48:39;94400.53;;;0.58;77.42
39789;BME280;25478;42.626;23.320;2023-02-14T00:51:05;94404.69;;;0.59;77.69
39789;BME280;25478;42.626;23.320;2023-02-14T00:53:31;94392.75;;;0.58;77.64
39789;BME280;25478;42.626;23.320;2023-02-14T00:55:56;94396.06;;;0.64;77.42
39789;BME280;25478;42.626;23.320;2023-02-14T00:58:22;94385.63;;;0.69;77.30
39789;BME280;25478;42.626;23.320;2023-02-14T01:00:47;94368.22;;;0.50;76.77
39789;BME280;25478;42.626;23.320;2023-02-14T01:03:13;94389.28;;;0.68;76.81
39789;BME280;25478;42.626;23.320;2023-02-14T01:05:39;94384.88;;;0.68;77.12
39789;BME280;25478;42.626;23.320;2023-02-14T01:08:05;94389.00;;;0.69;76.91
39789;BME280;25478;42.626;23.320;2023-02-14T01:10:30;94377.09;;;0.68;76.64
39789;BME280;25478;42.626;23.320;2023-02-14T01:12:57;94374.56;;;0.63;76.83
39789;BME280;25478;42.626;23.320;2023-02-14T01:15:23;94378.41;;;0.66;76.52
39789;BME280;25478;42.626;23.320;2023-02-14T01:17:48;94390.66;;;0.60;76.85
39789;BME280;25478;42.626;23.320;2023-02-14T01:20:14;94378.47;;;0.61;76.52
39789;BME280;25478;42.626;23.320;2023-02-14T01:22:39;94372.25;;;0.62;76.57
39789;BME280;25478;42.626;23.320;2023-02-14T01:25:05;94357.59;;;0.52;76.28
39789;BME280;25478;42.626;23.320;2023-02-14T01:27:31;94349.06;;;0.51;76.59
39789;BME280;25478;42.626;23.320;2023-02-14T01:29:57;94376.16;;;0.59;76.79
39789;BME280;25478;42.626;23.320;2023-02-14T01:32:23;94344.91;;;0.50;77.13
39789;BME280;25478;42.626;23.320;2023-02-14T01:34:49;94353.34;;;0.61;76.25
39789;BME280;25478;42.626;23.320;2023-02-14T01:37:15;94362.50;;;0.53;76.53
39789;BME280;25478;42.626;23.320;2023-02-14T01:39:41;94357.84;;;0.50;76.82
39789;BME280;25478;42.626;23.320;2023-02-14T01:42:09;94358.84;;;0.54;76.63
39789;BME280;25478;42.626;23.320;2023-02-14T01:47:01;94331.47;;;0.48;77.05
39789;BME280;25478;42.626;23.320;2023-02-14T01:49:34;94336.88;;;0.52;76.35
39789;BME280;25478;42.626;23.320;2023-02-14T01:52:11;94332.94;;;0.54;75.95
39789;BME280;25478;42.626;23.320;2023-02-14T01:54:40;94319.56;;;0.47;76.24
39789;BME280;25478;42.626;23.320;2023-02-14T01:57:12;94323.16;;;0.51;76.07
39789;BME280;25478;42.626;23.320;2023-02-14T01:59:52;94332.75;;;0.51;76.19
39789;BME280;25478;42.626;23.320;2023-02-14T02:02:20;94337.66;;;0.52;76.51
39789;BME280;25478;42.626;23.320;2023-02-14T02:04:50;94326.28;;;0.48;76.34
39789;BME280;25478;42.626;23.320;2023-02-14T02:07:21;94339.72;;;0.50;75.98
39789;BME280;25478;42.626;23.320;2023-02-14T02:09:57;94339.03;;;0.45;76.26
39789;BME280;25478;42.626;23.320;2023-02-14T02:12:24;94342.31;;;0.50;76.65
39789;BME280;25478;42.626;23.320;2023-02-14T02:14:52;94335.06;;;0.52;76.76
39789;BME280;25478;42.626;23.320;2023-02-14T02:23:38;94340.44;;;0.56;77.27
39789;BME280;25478;42.626;23.320;2023-02-14T02:28:46;94343.59;;;0.53;76.73
39789;BME280;25478;42.626;23.320;2023-02-14T02:32:03;94340.22;;;0.52;77.26
39789;BME280;25478;42.626;23.320;2023-02-14T02:45:56;94299.31;;;0.49;76.22
39789;BME280;25478;42.626;23.320;2023-02-14T02:51:44;94295.69;;;0.50;76.15
39789;BME280;25478;42.626;23.320;2023-02-14T02:54:41;94265.94;;;0.29;75.86
39789;BME280;25478;42.626;23.320;2023-02-14T02:57:16;94267.19;;;0.32;75.97
39789;BME280;25478;42.626;23.320;2023-02-14T02:59:44;94302.19;;;0.48;75.62
39789;BME280;25478;42.626;23.320;2023-02-14T03:02:15;94307.94;;;0.45;75.71
39789;BME280;25478;42.626;23.320;2023-02-14T03:04:46;94293.75;;;0.42;75.76
39789;BME280;25478;42.626;23.320;2023-02-14T03:07:32;94297.59;;;0.45;75.78
39789;BME280;25478;42.626;23.320;2023-02-14T03:18:05;94292.75;;;0.38;76.08
39789;BME280;25478;42.626;23.320;2023-02-14T03:21:12;94297.94;;;0.38;76.22
39789;BME280;25478;42.626;23.320;2023-02-14T03:23:49;94297.16;;;0.38;76.68
39789;BME280;25478;42.626;23.320;2023-02-14T03:26:30;94270.25;;;0.34;76.15
39789;BME280;25478;42.626;23.320;2023-02-14T03:29:05;94280.38;;;0.35;76.36
39789;BME280;25478;42.626;23.320;2023-02-14T03:32:05;94270.50;;;0.37;76.04
39789;BME280;25478;42.626;23.320;2023-02-14T03:37:16;94268.53;;;0.29;76.82
39789;BME280;25478;42.626;23.320;2023-02-14T03:39:58;94272.38;;;0.32;76.59
39789;BME280;25478;42.626;23.320;2023-02-14T03:42:39;94268.59;;;0.24;76.87
39789;BME280;25478;42.626;23.320;2023-02-14T03:45:09;94240.31;;;0.09;76.92
39789;BME280;25478;42.626;23.320;2023-02-14T03:47:39;94247.03;;;0.28;76.08
39789;BME280;25478;42.626;23.320;2023-02-14T03:50:15;94256.69;;;0.23;76.36
39789;BME280;25478;42.626;23.320;2023-02-14T03:52:42;94259.00;;;0.24;76.08
39789;BME280;25478;42.626;23.320;2023-02-14T03:55:10;94259.28;;;0.23;75.68
39789;BME280;25478;42.626;23.320;2023-02-14T03:57:49;94256.69;;;0.23;76.27
39789;BME280;25478;42.626;23.320;2023-02-14T04:00:17;94231.75;;;0.08;76.20
39789;BME280;25478;42.626;23.320;2023-02-14T04:02:46;94246.63;;;0.21;76.30
39789;BME280;25478;42.626;23.320;2023-02-14T04:05:16;94237.31;;;0.20;75.91
39789;BME280;25478;42.626;23.320;2023-02-14T04:07:56;94212.19;;;0.02;75.98
39789;BME280;25478;42.626;23.320;2023-02-14T04:10:22;94229.88;;;0.14;76.14
39789;BME280;25478;42.626;23.320;2023-02-14T04:12:49;94223.38;;;0.16;75.64
39789;BME280;25478;42.626;23.320;2023-02-14T04:15:15;94244.84;;;0.17;75.33
39789;BME280;25478;42.626;23.320;2023-02-14T04:17:40;94220.00;;;0.16;75.54
39789;BME280;25478;42.626;23.320;2023-02-14T04:20:25;94226.72;;;0.17;75.78
39789;BME280;25478;42.626;23.320;2023-02-14T04:22:51;94227.00;;;0.15;75.65
39789;BME280;25478;42.626;23.320;2023-02-14T04:25:17;94225.13;;;0.02;75.93
39789;BME280;25478;42.626;23.320;2023-02-14T04:27:43;94238.97;;;0.11;75.94
39789;BME280;25478;42.626;23.320;2023-02-14T04:30:09;94232.75;;;0.12;76.26
39789;BME280;25478;42.626;23.320;2023-02-14T04:32:37;94224.97;;;0.12;75.76
39789;BME280;25478;42.626;23.320;2023-02-14T04:35:03;94221.00;;;0.20;75.29
39789;BME280;25478;42.626;23.320;2023-02-14T04:37:29;94228.28;;;0.18;74.70
39789;BME280;25478;42.626;23.320;2023-02-14T04:39:54;94249.34;;;0.11;75.03
39789;BME280;25478;42.626;23.320;2023-02-14T04:42:19;94253.75;;;0.11;75.39
39789;BME280;25478;42.626;23.320;2023-02-14T04:44:45;94245.75;;;0.07;75.66
39789;BME280;25478;42.626;23.320;2023-02-14T04:47:10;94235.19;;;0.04;75.67
39789;BME280;25478;42.626;23.320;2023-02-14T04:49:36;94225.59;;;0.04;76.30
39789;BME280;25478;42.626;23.320;2023-02-14T04:52:02;94211.91;;;0.04;76.00
39789;BME280;25478;42.626;23.320;2023-02-14T04:54:28;94208.75;;;0.07;76.24
39789;BME280;25478;42.626;23.320;2023-02-14T04:56:54;94209.31;;;0.04;76.29
39789;BME280;25478;42.626;23.320;2023-02-14T04:59:19;94209.13;;;0.00;76.49
39789;BME280;25478;42.626;23.320;2023-02-14T05:01:45;94206.00;;;-0.02;76.27
39789;BME280;25478;42.626;23.320;2023-02-14T05:04:11;94192.09;;;-0.06;75.64
39789;BME280;25478;42.626;23.320;2023-02-14T05:06:36;94212.53;;;-0.05;75.41
39789;BME280;25478;42.626;23.320;2023-02-14T05:09:02;94221.81;;;-0.04;75.65
39789;BME280;25478;42.626;23.320;2023-02-14T05:11:28;94217.91;;;-0.01;74.69
39789;BME280;25478;42.626;23.320;2023-02-14T05:13:54;94209.94;;;-0.05;75.31
39789;BME280;25478;42.626;23.320;2023-02-14T05:16:19;94206.53;;;0.00;74.33
39789;BME280;25478;42.626;23.320;2023-02-14T05:18:45;94219.47;;;0.00;74.44
39789;BME280;25478;42.626;23.320;2023-02-14T05:21:10;94217.38;;;0.02;73.64
39789;BME280;25478;42.626;23.320;2023-02-14T05:23:36;94216.78;;;0.05;73.55
39789;BME280;25478;42.626;23.320;2023-02-14T05:26:02;94191.63;;;-0.08;74.21
39789;BME280;25478;42.626;23.320;2023-02-14T05:28:28;94211.13;;;0.03;74.32
39789;BME280;25478;42.626;23.320;2023-02-14T05:30:53;94202.88;;;0.01;74.73
39789;BME280;25478;42.626;23.320;2023-02-14T05:33:21;94204.41;;;0.02;74.59
39789;BME280;25478;42.626;23.320;2023-02-14T05:35:47;94208.47;;;0.08;74.26
39789;BME280;25478;42.626;23.320;2023-02-14T05:38:12;94204.97;;;-0.01;74.99
39789;BME280;25478;42.626;23.320;2023-02-14T05:40:39;94219.19;;;0.02;74.92
39789;BME280;25478;42.626;23.320;2023-02-14T05:43:04;94212.38;;;0.06;75.30
39789;BME280;25478;42.626;23.320;2023-02-14T05:45:30;94210.50;;;0.11;75.44
39789;BME280;25478;42.626;23.320;2023-02-14T05:47:55;94199.56;;;0.14;75.33
39789;BME280;25478;42.626;23.320;2023-02-14T05:50:21;94202.16;;;0.14;74.94
39789;BME280;25478;42.626;23.320;2023-02-14T05:52:46;94195.72;;;0.12;75.37
39789;BME280;25478;42.626;23.320;2023-02-14T05:55:12;94197.97;;;0.18;75.34
39789;BME280;25478;42.626;23.320;2023-02-14T05:57:37;94203.41;;;0.17;74.96
39789;BME280;25478;42.626;23.320;2023-02-14T06:00:05;94209.00;;;0.24;75.50
39789;BME280;25478;42.626;23.320;2023-02-14T06:02:37;94193.69;;;0.27;74.45
39789;BME280;25478;42.626;23.320;2023-02-14T06:05:05;94191.78;;;0.33;74.85
39789;BME280;25478;42.626;23.320;2023-02-14T06:07:35;94201.59;;;0.36;74.78
39789;BME280;25478;42.626;23.320;2023-02-14T06:10:00;94207.19;;;0.43;74.04
39789;BME280;25478;42.626;23.320;2023-02-14T06:12:26;94209.41;;;0.50;73.69
39789;BME280;25478;42.626;23.320;2023-02-14T06:14:51;94214.81;;;0.53;74.30
39789;BME280;25478;42.626;23.320;2023-02-14T06:17:17;94208.00;;;0.57;74.00
39789;BME280;25478;42.626;23.320;2023-02-14T06:19:42;94221.38;;;0.65;73.80
39789;BME280;25478;42.626;23.320;2023-02-14T06:22:08;94226.13;;;0.76;73.54
39789;BME280;25478;42.626;23.320;2023-02-14T06:24:34;94221.81;;;0.86;73.93
39789;BME280;25478;42.626;23.320;2023-02-14T06:26:59;94215.13;;;0.98;72.91
39789;BME280;25478;42.626;23.320;2023-02-14T06:29:25;94230.72;;;1.12;73.04
39789;BME280;25478;42.626;23.320;2023-02-14T06:31:51;94239.41;;;1.35;72.29
39789;BME280;25478;42.626;23.320;2023-02-14T06:34:16;94239.38;;;1.49;71.93
39789;BME280;25478;42.626;23.320;2023-02-14T06:36:42;94229.03;;;1.62;71.96
39789;BME280;25478;42.626;23.320;2023-02-14T06:39:07;94224.59;;;1.77;71.31
39789;BME280;25478;42.626;23.320;2023-02-14T06:41:33;94226.78;;;1.83;70.64
39789;BME280;25478;42.626;23.320;2023-02-14T06:43:58;94228.91;;;1.81;70.86
39789;BME280;25478;42.626;23.320;2023-02-14T06:46:24;94233.94;;;1.78;70.27
39789;BME280;25478;42.626;23.320;2023-02-14T06:48:50;94228.91;;;1.67;71.58
39789;BME280;25478;42.626;23.320;2023-02-14T06:51:15;94214.69;;;1.65;71.31
39789;BME280;25478;42.626;23.320;2023-02-14T06:53:41;94223.81;;;1.62;71.66
39789;BME280;25478;42.626;23.320;2023-02-14T06:56:06;94221.22;;;1.62;71.98
39789;BME280;25478;42.626;23.320;2023-02-14T06:58:32;94211.31;;;1.64;71.98
39789;BME280;25478;42.626;23.320;2023-02-14T07:00:58;94223.53;;;1.78;71.91
39789;BME280;25478;42.626;23.320;2023-02-14T07:03:24;94214.47;;;1.89;71.78
39789;BME280;25478;42.626;23.320;2023-02-14T07:05:51;94223.28;;;2.02;71.19
39789;BME280;25478;42.626;23.320;2023-02-14T07:08:16;94212.28;;;2.18;70.49
39789;BME280;25478;42.626;23.320;2023-02-14T07:10:42;94193.31;;;2.32;70.22
39789;BME280;25478;42.626;23.320;2023-02-14T07:13:07;94192.66;;;2.48;70.07
39789;BME280;25478;42.626;23.320;2023-02-14T07:15:33;94199.00;;;2.56;69.61
39789;BME280;25478;42.626;23.320;2023-02-14T07:17:58;94197.91;;;2.57;69.62
39789;BME280;25478;42.626;23.320;2023-02-14T07:20:24;94206.63;;;2.52;69.94
39789;BME280;25478;42.626;23.320;2023-02-14T07:22:50;94200.81;;;2.56;70.20
39789;BME280;25478;42.626;23.320;2023-02-14T07:25:15;94200.06;;;2.55;69.69
39789;BME280;25478;42.626;23.320;2023-02-14T07:27:41;94216.53;;;2.50;69.91
39789;BME280;25478;42.626;23.320;2023-02-14T07:30:08;94211.16;;;2.47;70.75
39789;BME280;25478;42.626;23.320;2023-02-14T07:32:36;94209.63;;;2.46;70.51
39789;BME280;25478;42.626;23.320;2023-02-14T07:35:01;94218.00;;;2.43;71.64
39789;BME280;25478;42.626;23.320;2023-02-14T07:37:27;94206.97;;;2.37;71.48
39789;BME280;25478;42.626;23.320;2023-02-14T07:39:52;94214.56;;;2.34;72.26
39789;BME280;25478;42.626;23.320;2023-02-14T07:42:18;94219.00;;;2.33;72.13
39789;BME280;25478;42.626;23.320;2023-02-14T07:44:43;94222.94;;;2.31;72.13
39789;BME280;25478;42.626;23.320;2023-02-14T07:47:10;94218.28;;;2.19;73.01
39789;BME280;25478;42.626;23.320;2023-02-14T07:49:36;94196.97;;;1.94;72.79
39789;BME280;25478;42.626;23.320;2023-02-14T07:52:02;94222.72;;;2.05;73.67
39789;BME280;25478;42.626;23.320;2023-02-14T07:54:28;94229.06;;;1.98;73.41
39789;BME280;25478;42.626;23.320;2023-02-14T07:56:54;94227.16;;;1.90;74.20
39789;BME280;25478;42.626;23.320;2023-02-14T07:59:20;94240.16;;;1.90;74.53
39789;BME280;25478;42.626;23.320;2023-02-14T08:01:45;94236.78;;;1.90;74.69
39789;BME280;25478;42.626;23.320;2023-02-14T08:04:11;94231.81;;;1.80;75.05
39789;BME280;25478;42.626;23.320;2023-02-14T08:06:40;94241.22;;;1.76;75.29
39789;BME280;25478;42.626;23.320;2023-02-14T08:09:06;94250.81;;;1.75;75.35
39789;BME280;25478;42.626;23.320;2023-02-14T08:11:31;94237.66;;;1.72;75.82
39789;BME280;25478;42.626;23.320;2023-02-14T08:14:15;94240.84;;;1.68;75.81
39789;BME280;25478;42.626;23.320;2023-02-14T08:16:40;94240.06;;;1.68;76.20
39789;BME280;25478;42.626;23.320;2023-02-14T08:19:06;94241.31;;;1.71;76.20
39789;BME280;25478;42.626;23.320;2023-02-14T08:21:32;94243.34;;;1.74;76.11
39789;BME280;25478;42.626;23.320;2023-02-14T08:23:57;94228.13;;;1.67;76.55
39789;BME280;25478;42.626;23.320;2023-02-14T08:26:23;94247.09;;;1.81;76.27
39789;BME280;25478;42.626;23.320;2023-02-14T08:28:49;94257.75;;;1.80;76.21
39789;BME280;25478;42.626;23.320;2023-02-14T08:31:23;94256.31;;;1.74;76.54
39789;BME280;25478;42.626;23.320;2023-02-14T08:33:49;94266.97;;;1.58;76.88
39789;BME280;25478;42.626;23.320;2023-02-14T08:36:14;94256.34;;;1.60;77.17
39789;BME280;25478;42.626;23.320;2023-02-14T08:38:42;94248.13;;;1.66;77.17
39789;BME280;25478;42.626;23.320;2023-02-14T08:41:10;94240.75;;;1.74;76.99
39789;BME280;25478;42.626;23.320;2023-02-14T08:43:35;94237.75;;;1.66;77.31
39789;BME280;25478;42.626;23.320;2023-02-14T08:46:01;94253.25;;;1.72;77.33
39789;BME280;25478;42.626;23.320;2023-02-14T08:48:26;94263.03;;;1.75;77.39
39789;BME280;25478;42.626;23.320;2023-02-14T08:50:52;94245.81;;;1.51;77.99
39789;BME280;25478;42.626;23.320;2023-02-14T08:53:17;94263.53;;;1.63;77.94
39789;BME280;25478;42.626;23.320;2023-02-14T08:55:43;94264.31;;;1.63;78.04
39789;BME280;25478;42.626;23.320;2023-02-14T08:58:08;94267.97;;;1.62;78.40
39789;BME280;25478;42.626;23.320;2023-02-14T09:00:34;94258.41;;;1.58;79.38
39789;BME280;25478;42.626;23.320;2023-02-14T09:02:59;94257.19;;;1.55;80.15
39789;BME280;25478;42.626;23.320;2023-02-14T09:05:25;94262.19;;;1.52;80.34
39789;BME280;25478;42.626;23.320;2023-02-14T09:07:51;94265.03;;;1.50;80.76
39789;BME280;25478;42.626;23.320;2023-02-14T09:10:17;94253.13;;;1.49;80.90
39789;BME280;25478;42.626;23.320;2023-02-14T09:12:43;94250.81;;;1.48;81.47
39789;BME280;25478;42.626;23.320;2023-02-14T09:15:10;94246.13;;;1.50;81.88
39789;BME280;25478;42.626;23.320;2023-02-14T09:17:37;94250.06;;;1.47;82.15
39789;BME280;25478;42.626;23.320;2023-02-14T09:20:04;94245.06;;;1.51;82.09
39789;BME280;25478;42.626;23.320;2023-02-14T09:22:32;94238.72;;;1.57;82.57
39789;BME280;25478;42.626;23.320;2023-02-14T09:24:59;94229.56;;;1.59;82.23
39789;BME280;25478;42.626;23.320;2023-02-14T09:27:25;94232.09;;;1.64;81.93
39789;BME280;25478;42.626;23.320;2023-02-14T09:29:51;94232.78;;;1.70;81.73
39789;BME280;25478;42.626;23.320;2023-02-14T09:32:17;94234.78;;;1.73;81.19
39789;BME280;25478;42.626;23.320;2023-02-14T09:34:42;94227.75;;;1.74;80.95
39789;BME280;25478;42.626;23.320;2023-02-14T09:37:11;94228.13;;;1.81;80.84
39789;BME280;25478;42.626;23.320;2023-02-14T09:39:56;94235.63;;;1.82;80.25
39789;BME280;25478;42.626;23.320;2023-02-14T09:42:36;94223.06;;;1.62;80.01
39789;BME280;25478;42.626;23.320;2023-02-14T09:45:14;94238.44;;;1.72;80.25
39789;BME280;25478;42.626;23.320;2023-02-14T09:53:17;94225.38;;;1.77;79.47
39789;BME280;25478;42.626;23.320;2023-02-14T09:56:03;94219.13;;;1.78;79.17
39789;BME280;25478;42.626;23.320;2023-02-14T09:58:35;94219.41;;;1.77;79.50
39789;BME280;25478;42.626;23.320;2023-02-14T10:01:09;94226.59;;;1.80;79.59
39789;BME280;25478;42.626;23.320;2023-02-14T10:09:06;94217.75;;;1.81;78.86
39789;BME280;25478;42.626;23.320;2023-02-14T10:11:37;94210.44;;;1.83;78.95
39789;BME280;25478;42.626;23.320;2023-02-14T10:14:10;94203.13;;;1.85;78.62
39789;BME280;25478;42.626;23.320;2023-02-14T10:19:57;94209.59;;;1.74;77.77
39789;BME280;25478;42.626;23.320;2023-02-14T10:22:40;94212.00;;;1.70;78.64
39789;BME280;25478;42.626;23.320;2023-02-14T10:25:22;94205.94;;;1.75;78.59
39789;BME280;25478;42.626;23.320;2023-02-14T10:27:51;94200.66;;;1.80;77.96
39789;BME280;25478;42.626;23.320;2023-02-14T10:30:21;94198.81;;;1.80;78.30
39789;BME280;25478;42.626;23.320;2023-02-14T10:35:32;94183.31;;;1.89;77.23
39789;BME280;25478;42.626;23.320;2023-02-14T10:38:12;94193.31;;;1.82;76.60
39789;BME280;25478;42.626;23.320;2023-02-14T10:40:58;94190.06;;;1.76;77.11
39789;BME280;25478;42.626;23.320;2023-02-14T10:43:49;94188.72;;;1.79;77.05
39789;BME280;25478;42.626;23.320;2023-02-14T10:46:41;94186.59;;;1.81;76.56
39789;BME280;25478;42.626;23.320;2023-02-14T10:51:54;94187.66;;;1.80;76.80
39789;BME280;25478;42.626;23.320;2023-02-14T10:54:26;94188.81;;;1.87;76.50
39789;BME280;25478;42.626;23.320;2023-02-14T10:59:45;94183.34;;;1.75;75.92
39789;BME280;25478;42.626;23.320;2023-02-14T11:02:16;94177.66;;;1.73;75.92
39789;BME280;25478;42.626;23.320;2023-02-14T11:04:43;94177.56;;;1.78;76.05
39789;BME280;25478;42.626;23.320;2023-02-14T11:07:13;94180.03;;;1.83;76.13
39789;BME280;25478;42.626;23.320;2023-02-14T11:09:39;94174.84;;;1.83;75.90
39789;BME280;25478;42.626;23.320;2023-02-14T11:12:04;94182.16;;;1.81;76.25
39789;BME280;25478;42.626;23.320;2023-02-14T11:14:32;94180.53;;;1.85;76.46
39789;BME280;25478;42.626;23.320;2023-02-14T11:17:26;94177.34;;;1.88;75.79
39789;BME280;25478;42.626;23.320;2023-02-14T11:19:59;94173.03;;;1.84;75.28
39789;BME280;25478;42.626;23.320;2023-02-14T11:22:32;94163.53;;;1.79;75.39
39789;BME280;25478;42.626;23.320;2023-02-14T11:25:12;94178.13;;;1.89;75.70
39789;BME280;25478;42.626;23.320;2023-02-14T11:27:43;94182.94;;;1.82;75.55
39789;BME280;25478;42.626;23.320;2023-02-14T11:30:27;94186.00;;;1.84;75.76
39789;BME280;25478;42.626;23.320;2023-02-14T11:32:54;94158.25;;;1.71;75.10
39789;BME280;25478;42.626;23.320;2023-02-14T11:35:22;94166.34;;;1.69;75.87
39789;BME280;25478;42.626;23.320;2023-02-14T11:37:53;94160.94;;;1.65;75.78
39789;BME280;25478;42.626;23.320;2023-02-14T11:40:34;94150.47;;;1.57;76.86
39789;BME280;25478;42.626;23.320;2023-02-14T11:43:33;94155.28;;;1.50;76.65
39789;BME280;25478;42.626;23.320;2023-02-14T11:46:12;94161.66;;;1.44;77.10
39789;BME280;25478;42.626;23.320;2023-02-14T11:48:59;94156.25;;;1.40;76.99
39789;BME280;25478;42.626;23.320;2023-02-14T11:51:44;94157.41;;;1.48;77.19
39789;BME280;25478;42.626;23.320;2023-02-14T11:54:20;94137.53;;;1.43;76.77
39789;BME280;25478;42.626;23.320;2023-02-14T11:56:55;94150.47;;;1.57;76.64
39789;BME280;25478;42.626;23.320;2023-02-14T11:59:28;94129.03;;;1.51;76.03
39789;BME280;25478;42.626;23.320;2023-02-14T12:01:58;94137.28;;;1.67;75.13
39789;BME280;25478;42.626;23.320;2023-02-14T12:04:36;94118.88;;;1.55;74.90
39789;BME280;25478;42.626;23.320;2023-02-14T12:07:17;94126.22;;;1.75;74.66
39789;BME280;25478;42.626;23.320;2023-02-14T12:09:46;94096.25;;;1.69;73.90
39789;BME280;25478;42.626;23.320;2023-02-14T12:12:19;94109.25;;;1.91;73.54
39789;BME280;25478;42.626;23.320;2023-02-14T12:14:47;94094.38;;;1.83;73.71
39789;BME280;25478;42.626;23.320;2023-02-14T12:17:23;94088.59;;;1.86;73.20
39789;BME280;25478;42.626;23.320;2023-02-14T12:20:10;94118.63;;;2.01;73.48
39789;BME280;25478;42.626;23.320;2023-02-14T12:23:02;94125.47;;;2.11;72.88
39789;BME280;25478;42.626;23.320;2023-02-14T12:25:50;94120.13;;;2.16;72.78
39789;BME280;25478;42.626;23.320;2023-02-14T12:28:48;94114.53;;;2.22;72.46
39789;BME280;25478;42.626;23.320;2023-02-14T12:31:16;94108.94;;;2.29;72.33
39789;BME280;25478;42.626;23.320;2023-02-14T12:33:42;94080.03;;;2.08;72.17
39789;BME280;25478;42.626;23.320;2023-02-14T12:36:09;94113.50;;;2.32;71.66
39789;BME280;25478;42.626;23.320;2023-02-14T12:47:20;94107.50;;;2.23;71.88
39789;BME280;25478;42.626;23.320;2023-02-14T12:50:12;94117.28;;;2.26;72.39
39789;BME280;25478;42.626;23.320;2023-02-14T13:00:53;94116.81;;;2.24;72.39
39789;BME280;25478;42.626;23.320;2023-02-14T13:03:50;94125.78;;;2.18;72.94
39789;BME280;25478;42.626;23.320;2023-02-14T13:22:04;94090.53;;;2.25;73.83
39789;BME280;25478;42.626;23.320;2023-02-14T13:24:38;94090.91;;;2.33;73.60
39789;BME280;25478;42.626;23.320;2023-02-14T13:27:07;94090.28;;;2.27;73.44
39789;BME280;25478;42.626;23.320;2023-02-14T13:29:50;94094.81;;;2.21;74.02
39789;BME280;25478;42.626;23.320;2023-02-14T13:32:21;94100.66;;;2.27;73.76
39789;BME280;25478;42.626;23.320;2023-02-14T13:34:49;94101.53;;;2.22;74.23
39789;BME280;25478;42.626;23.320;2023-02-14T13:37:18;94096.22;;;2.28;74.27
39789;BME280;25478;42.626;23.320;2023-02-14T13:39:50;94098.78;;;2.19;74.81
39789;BME280;25478;42.626;23.320;2023-02-14T13:50:38;94091.97;;;2.09;75.31
39789;BME280;25478;42.626;23.320;2023-02-14T13:53:04;94093.44;;;2.02;75.58
39789;BME280;25478;42.626;23.320;2023-02-14T13:55:35;94098.22;;;2.08;75.72
39789;BME280;25478;42.626;23.320;2023-02-14T13:58:05;94099.19;;;2.12;75.48
39789;BME280;25478;42.626;23.320;2023-02-14T14:00:37;94104.38;;;2.12;75.31
39789;BME280;25478;42.626;23.320;2023-02-14T14:03:02;94100.06;;;2.08;75.19
39789;BME280;25478;42.626;23.320;2023-02-14T14:10:47;94105.25;;;2.08;75.26
39789;BME280;25478;42.626;23.320;2023-02-14T14:18:49;94102.88;;;1.97;75.63
39789;BME280;25478;42.626;23.320;2023-02-14T14:21:41;94100.28;;;1.97;75.41
39789;BME280;25478;42.626;23.320;2023-02-14T14:24:26;94104.81;;;1.92;75.77
39789;BME280;25478;42.626;23.320;2023-02-14T14:29:36;94107.31;;;1.97;75.67
39789;BME280;25478;42.626;23.320;2023-02-14T14:32:11;94101.53;;;2.00;75.83
39789;BME280;25478;42.626;23.320;2023-02-14T14:34:50;94096.31;;;2.00;75.55
39789;BME280;25478;42.626;23.320;2023-02-14T14:37:19;94092.03;;;1.95;75.83
39789;BME280;25478;42.626;23.320;2023-02-14T14:39:50;94081.34;;;1.97;75.82
39789;BME280;25478;42.626;23.320;2023-02-14T14:42:17;94070.50;;;1.95;75.70
39789;BME280;25478;42.626;23.320;2023-02-14T14:44:58;94065.31;;;1.95;76.21
39789;BME280;25478;42.626;23.320;2023-02-14T14:47:30;94060.31;;;1.85;76.30
39789;BME280;25478;42.626;23.320;2023-02-14T14:50:05;94074.16;;;1.94;76.33
39789;BME280;25478;42.626;23.320;2023-02-14T14:52:35;94084.03;;;1.92;76.21
39789;BME280;25478;42.626;23.320;2023-02-14T14:55:05;94086.06;;;1.95;76.20
39789;BME280;25478;42.626;23.320;2023-02-14T14:57:34;94078.84;;;1.92;76.17
39789;BME280;25478;42.626;23.320;2023-02-14T15:00:30;94075.03;;;1.89;76.30
39789;BME280;25478;42.626;23.320;2023-02-14T15:05:42;94087.66;;;1.82;76.54
39789;BME280;25478;42.626;23.320;2023-02-14T15:10:52;94095.72;;;1.81;76.61
39789;BME280;25478;42.626;23.320;2023-02-14T15:13:31;94091.59;;;1.80;76.74
39789;BME280;25478;42.626;23.320;2023-02-14T15:16:30;94094.00;;;1.76;76.82